Terminal Aerodrome Forecast
Issued by NWS

Home | Current Version | Previous Version | Text Only | Print | Product List | Glossary On
Versions: 1 2 3 4 5 6 7 8 9 10 11 12 13 14
000
FTUS43 KGRR 300500
TAFMKG
TAF
KMKG 300540Z 3006/3106 18011KT P6SM VCSH SCT060 BKN090
      TEMPO 3009/3013 4SM -SHRA BR BKN040
     FM301300 20015KT P6SM SCT040 BKN070
     FM301800 21014KT P6SM VCTS SCT025CB BKN040
     FM310100 23006KT P6SM BKN025=

USA.gov is the U.S. government's official web portal to all federal, state and local government web resources and services.